Time;durP1;ratioP1;P1;durP2;ratioP2;P2;SDS_P1;SDS_P2;PMS_P1;PMS_P2;Temp;Humidity;BMP_temperature;BMP_pressure;BME280_temperature;BME280_humidity;BME280_pressure;Samples;Min_cycle;Max_cycle;Signal;HPM_P1;HPM_P2
2023/08/31 00:01:35;;;;;;;3.77;3.47;;;16.20;99.90;;;;;;4953708;28;20642;-72
2023/08/31 00:04:01;;;;;;;3.10;2.90;;;16.30;99.90;;;;;;4967768;28;20436;-71
2023/08/31 00:06:27;;;;;;;3.20;3.00;;;16.30;99.90;;;;;;4953533;28;20171;-72
2023/08/31 00:08:52;;;;;;;3.50;3.00;;;16.30;99.90;;;;;;4960079;28;20213;-72
2023/08/31 00:11:19;;;;;;;4.60;3.13;;;16.30;99.90;;;;;;4957087;28;20620;-71
2023/08/31 00:13:45;;;;;;;3.53;3.23;;;16.30;99.90;;;;;;4953255;28;20201;-71
2023/08/31 00:16:12;;;;;;;3.13;2.93;;;16.30;99.90;;;;;;4958252;28;20414;-71
2023/08/31 00:18:38;;;;;;;3.20;2.90;;;16.30;99.90;;;;;;4953027;28;20212;-71
2023/08/31 00:21:04;;;;;;;3.30;3.00;;;16.20;99.90;;;;;;4953337;28;20519;-71
2023/08/31 00:23:30;;;;;;;3.40;3.10;;;16.20;99.90;;;;;;4952889;28;20540;-70
2023/08/31 00:25:57;;;;;;;3.70;3.40;;;16.20;99.90;;;;;;4959339;28;20570;-72
2023/08/31 00:28:22;;;;;;;3.70;2.93;;;16.20;99.90;;;;;;4959156;28;20279;-71
2023/08/31 00:30:48;;;;;;;3.17;2.87;;;16.20;99.90;;;;;;4960424;28;20541;-71
2023/08/31 00:33:15;;;;;;;6.00;3.50;;;16.20;99.90;;;;;;4955835;28;20425;-70
2023/08/31 00:35:45;;;;;;;3.03;2.70;;;16.20;99.90;;;;;;4956962;28;20176;-73
2023/08/31 00:38:12;;;;;;;3.30;3.00;;;16.20;99.90;;;;;;4966716;28;20426;-71
2023/08/31 00:40:44;;;;;;;2.57;2.37;;;16.20;99.90;;;;;;4973756;28;20804;-72
2023/08/31 00:43:10;;;;;;;2.87;2.60;;;16.10;99.90;;;;;;4965149;28;20532;-72
2023/08/31 00:45:37;;;;;;;3.10;2.90;;;16.20;99.90;;;;;;4957542;28;20511;-72
2023/08/31 00:48:04;;;;;;;2.17;2.07;;;16.10;99.90;;;;;;4958910;28;20452;-72
2023/08/31 00:50:30;;;;;;;3.50;2.50;;;16.10;99.90;;;;;;4965841;28;20411;-71
2023/08/31 00:52:56;;;;;;;3.03;2.83;;;16.10;99.90;;;;;;4972476;28;21019;-72
2023/08/31 00:55:22;;;;;;;3.33;3.03;;;16.10;99.90;;;;;;4962587;28;20406;-72
2023/08/31 00:57:48;;;;;;;3.03;2.60;;;16.10;99.90;;;;;;4965206;28;21098;-72
2023/08/31 01:00:14;;;;;;;3.03;2.83;;;16.10;99.90;;;;;;4963366;28;20429;-71
2023/08/31 01:03:01;;;;;;;5.20;3.37;;;16.10;99.90;;;;;;4961890;28;20604;-73
2023/08/31 01:05:32;;;;;;;4.47;4.07;;;16.00;99.90;;;;;;4966651;28;20426;-73
2023/08/31 01:08:42;;;;;;;3.90;3.40;;;16.00;99.90;;;;;;4967618;28;20448;-70
2023/08/31 01:11:23;;;;;;;4.13;3.73;;;15.90;99.90;;;;;;4960534;28;20432;-71
2023/08/31 01:14:15;;;;;;;3.60;3.30;;;15.90;99.90;;;;;;4963507;28;20810;-71
2023/08/31 01:16:43;;;;;;;6.03;3.50;;;15.80;99.90;;;;;;4962832;28;20423;-71
2023/08/31 01:19:53;;;;;;;3.47;3.20;;;15.80;99.90;;;;;;4961291;28;20412;-71
2023/08/31 01:22:40;;;;;;;3.83;3.53;;;15.80;99.90;;;;;;4954373;28;20415;-71
2023/08/31 01:25:09;;;;;;;4.30;3.90;;;15.70;99.90;;;;;;4962647;28;20482;-71
2023/08/31 01:27:35;;;;;;;5.07;4.67;;;15.70;99.90;;;;;;4962381;28;20544;-71
2023/08/31 01:30:03;;;;;;;4.33;4.03;;;15.70;99.90;;;;;;4959934;28;20431;-71
2023/08/31 01:32:29;;;;;;;6.40;4.27;;;15.70;99.90;;;;;;4961299;28;20893;-71
2023/08/31 01:34:57;;;;;;;4.57;4.23;;;15.70;99.90;;;;;;4960263;28;20428;-71
2023/08/31 01:37:56;;;;;;;5.07;4.60;;;15.70;99.90;;;;;;4961597;28;21010;-71
2023/08/31 01:40:24;;;;;;;4.10;3.80;;;15.60;99.90;;;;;;4967123;28;20482;-71
2023/08/31 01:42:50;;;;;;;3.80;3.50;;;15.70;99.90;;;;;;4968863;28;20428;-71
2023/08/31 01:45:20;;;;;;;4.20;3.90;;;15.60;99.90;;;;;;4963460;28;20448;-71
2023/08/31 01:47:47;;;;;;;3.60;3.30;;;15.50;99.90;;;;;;4967704;28;20467;-71
2023/08/31 01:50:12;;;;;;;4.10;3.27;;;15.50;99.90;;;;;;4968401;28;20415;-71
2023/08/31 01:52:38;;;;;;;3.50;3.20;;;15.40;99.90;;;;;;4966985;28;20452;-71
2023/08/31 01:55:05;;;;;;;3.53;3.23;;;15.40;99.90;;;;;;4961951;28;20748;-71
2023/08/31 01:57:31;;;;;;;3.90;2.77;;;15.40;99.90;;;;;;4966060;28;20180;-70
2023/08/31 01:59:57;;;;;;;2.87;2.67;;;15.40;99.90;;;;;;4968553;28;20752;-71
2023/08/31 02:02:23;;;;;;;3.77;3.47;;;15.40;99.90;;;;;;4963713;28;20459;-74
2023/08/31 02:04:50;;;;;;;2.67;2.47;;;15.30;99.90;;;;;;4967677;28;20544;-71
2023/08/31 02:07:16;;;;;;;2.70;2.50;;;15.20;99.90;;;;;;4972690;28;20259;-71
2023/08/31 02:09:42;;;;;;;3.40;2.20;;;15.20;99.90;;;;;;4987722;28;20944;-70
2023/08/31 02:12:09;;;;;;;3.03;2.60;;;15.10;99.90;;;;;;4981396;28;20170;-71
2023/08/31 02:14:35;;;;;;;2.40;2.20;;;15.00;99.90;;;;;;4977621;28;20178;-71
2023/08/31 02:17:01;;;;;;;2.30;2.10;;;14.90;99.90;;;;;;4976460;28;20417;-71
2023/08/31 02:19:26;;;;;;;2.33;2.10;;;14.80;99.90;;;;;;4973305;28;20933;-73
2023/08/31 02:21:52;;;;;;;2.07;1.87;;;14.80;99.90;;;;;;4974802;28;20183;-72
2023/08/31 02:24:17;;;;;;;2.23;2.03;;;14.70;99.90;;;;;;4974769;28;20210;-71
2023/08/31 02:26:43;;;;;;;2.00;1.80;;;14.60;99.90;;;;;;4973363;28;20172;-71
2023/08/31 02:29:09;;;;;;;2.70;2.00;;;14.60;99.90;;;;;;4972279;28;20167;-70
2023/08/31 02:31:34;;;;;;;2.07;1.97;;;14.60;99.90;;;;;;4963699;28;20233;-71
2023/08/31 02:34:00;;;;;;;2.90;2.60;;;14.60;99.90;;;;;;4974667;28;20190;-71
2023/08/31 02:36:25;;;;;;;1.90;1.80;;;14.50;99.90;;;;;;4979179;28;20228;-71
2023/08/31 02:38:52;;;;;;;3.60;2.70;;;14.50;99.90;;;;;;4974482;28;20641;-71
2023/08/31 02:41:18;;;;;;;2.37;2.00;;;14.40;99.90;;;;;;4975226;28;20233;-71
2023/08/31 02:43:44;;;;;;;2.23;1.97;;;14.50;99.90;;;;;;4974304;28;20426;-70
2023/08/31 02:46:09;;;;;;;2.70;2.50;;;14.50;99.90;;;;;;4973945;28;20190;-70
2023/08/31 02:48:35;;;;;;;2.47;2.10;;;14.40;99.90;;;;;;4987696;28;20213;-70
2023/08/31 02:51:02;;;;;;;2.60;2.20;;;14.40;99.90;;;;;;4991058;28;20162;-71
2023/08/31 02:53:31;;;;;;;3.20;2.40;;;14.40;99.90;;;;;;4973578;28;20194;-70
2023/08/31 02:55:57;;;;;;;3.03;2.27;;;14.40;99.90;;;;;;4974338;28;20405;-71
2023/08/31 02:58:22;;;;;;;2.50;2.30;;;14.40;99.90;;;;;;4973868;28;20442;-70
2023/08/31 03:00:48;;;;;;;5.20;2.43;;;14.40;99.90;;;;;;4959529;28;20498;-71
2023/08/31 03:03:16;;;;;;;4.57;2.23;;;14.30;99.90;;;;;;4966117;28;20822;-71
2023/08/31 03:05:41;;;;;;;2.30;2.10;;;14.40;99.90;;;;;;4954778;28;20198;-71
2023/08/31 03:08:07;;;;;;;3.60;2.57;;;14.30;99.90;;;;;;4960568;28;20458;-71
2023/08/31 03:10:33;;;;;;;2.43;2.23;;;14.30;99.90;;;;;;4973820;28;20667;-70
2023/08/31 03:12:58;;;;;;;2.80;2.60;;;14.30;99.90;;;;;;4973749;28;20193;-70
2023/08/31 03:15:24;;;;;;;3.30;2.90;;;14.30;99.90;;;;;;4955515;28;20583;-70
2023/08/31 03:17:49;;;;;;;2.63;2.43;;;14.40;99.90;;;;;;4969077;28;20190;-70
2023/08/31 03:20:15;;;;;;;2.53;2.33;;;14.30;99.90;;;;;;4984047;28;20182;-70
2023/08/31 03:22:41;;;;;;;2.70;2.50;;;14.30;99.90;;;;;;4992912;28;20206;-70
2023/08/31 03:25:07;;;;;;;3.17;2.87;;;14.30;99.90;;;;;;4973464;28;20506;-70
2023/08/31 03:27:32;;;;;;;2.80;2.60;;;14.40;99.90;;;;;;4973301;28;20208;-70
2023/08/31 03:29:58;;;;;;;2.90;2.60;;;14.30;99.90;;;;;;4973492;28;20771;-70
2023/08/31 03:32:23;;;;;;;2.53;2.33;;;14.20;99.90;;;;;;4973508;28;20243;-70
2023/08/31 03:34:49;;;;;;;2.80;2.60;;;14.20;99.90;;;;;;4963833;28;20655;-70
2023/08/31 03:37:15;;;;;;;2.50;2.30;;;14.10;99.90;;;;;;4954424;28;20178;-70
2023/08/31 03:39:42;;;;;;;2.67;2.40;;;14.10;99.90;;;;;;4954456;28;20441;-70
2023/08/31 03:42:08;;;;;;;2.77;2.57;;;14.10;99.90;;;;;;4963187;28;20657;-70
2023/08/31 03:44:35;;;;;;;2.70;2.20;;;14.10;99.90;;;;;;4973596;28;20413;-70
2023/08/31 03:47:01;;;;;;;2.90;2.50;;;14.20;99.90;;;;;;4973288;28;20459;-70
2023/08/31 03:49:26;;;;;;;2.17;1.97;;;14.20;99.90;;;;;;4973505;28;20920;-70
2023/08/31 03:51:53;;;;;;;2.47;2.20;;;14.20;99.90;;;;;;4973627;28;20190;-70
2023/08/31 03:54:20;;;;;;;3.00;2.70;;;14.20;99.90;;;;;;4985211;23;20239;-71
2023/08/31 03:56:46;;;;;;;2.73;2.53;;;14.20;99.90;;;;;;4952085;28;20440;-72
2023/08/31 03:59:12;;;;;;;2.67;2.30;;;14.20;99.90;;;;;;4957929;28;21027;-71
2023/08/31 04:01:38;;;;;;;2.57;2.37;;;14.20;99.90;;;;;;4971708;28;20399;-72
2023/08/31 04:04:04;;;;;;;2.83;2.50;;;14.10;99.90;;;;;;4958142;28;20987;-72
2023/08/31 04:06:30;;;;;;;3.80;3.50;;;14.20;99.90;;;;;;4950780;28;20179;-72
2023/08/31 04:08:55;;;;;;;3.03;2.50;;;14.20;99.90;;;;;;4952275;28;20780;-72
2023/08/31 04:11:21;;;;;;;3.77;3.20;;;14.20;99.90;;;;;;4949375;28;20517;-72
2023/08/31 04:13:47;;;;;;;4.30;3.90;;;14.20;99.90;;;;;;4952102;28;20209;-72
2023/08/31 04:16:12;;;;;;;5.70;5.10;;;14.20;99.90;;;;;;4965593;28;20501;-71
2023/08/31 04:18:38;;;;;;;3.90;3.60;;;14.10;99.90;;;;;;4971315;28;20724;-72
2023/08/31 04:21:03;;;;;;;5.10;3.50;;;14.10;99.90;;;;;;4971540;28;20209;-71
2023/08/31 04:23:29;;;;;;;4.93;4.47;;;14.10;99.90;;;;;;4971401;28;20200;-74
2023/08/31 04:25:57;;;;;;;4.80;4.30;;;14.10;99.90;;;;;;4970290;28;20221;-72
2023/08/31 04:28:23;;;;;;;5.83;4.53;;;14.10;99.90;;;;;;4957564;28;20461;-72
2023/08/31 04:30:49;;;;;;;4.43;4.03;;;14.10;99.90;;;;;;4950871;28;20412;-72
2023/08/31 04:33:15;;;;;;;5.00;3.97;;;14.10;99.90;;;;;;4952064;28;20772;-72
2023/08/31 04:35:41;;;;;;;4.10;3.63;;;14.10;99.90;;;;;;4952075;28;20188;-73
2023/08/31 04:38:07;;;;;;;5.13;4.70;;;14.10;99.90;;;;;;4951628;28;20742;-72
2023/08/31 04:40:33;;;;;;;5.50;5.00;;;14.10;99.90;;;;;;4952476;28;20202;-72
2023/08/31 04:42:58;;;;;;;4.83;4.43;;;14.10;99.90;;;;;;4950299;28;20677;-72
2023/08/31 04:45:24;;;;;;;7.33;5.67;;;14.10;99.90;;;;;;4949602;28;20680;-72
2023/08/31 04:47:51;;;;;;;9.17;4.57;;;14.00;99.90;;;;;;4951396;28;20191;-72
2023/08/31 04:50:17;;;;;;;6.63;5.63;;;14.10;99.90;;;;;;4950161;28;20225;-72
2023/08/31 04:52:42;;;;;;;6.43;5.50;;;14.10;99.90;;;;;;4964292;28;20426;-73
2023/08/31 04:55:08;;;;;;;6.50;5.77;;;14.20;99.90;;;;;;4970966;28;20294;-74
2023/08/31 04:57:35;;;;;;;6.70;6.10;;;14.10;99.90;;;;;;4971186;28;20175;-74
2023/08/31 05:00:00;;;;;;;6.47;5.87;;;14.10;99.90;;;;;;4956442;28;20547;-74
2023/08/31 05:02:27;;;;;;;10.10;5.63;;;14.10;99.90;;;;;;4954566;28;20514;-74
2023/08/31 05:04:53;;;;;;;5.90;5.30;;;14.10;99.90;;;;;;4951798;29;20561;-74
2023/08/31 05:07:18;;;;;;;6.70;6.00;;;14.10;99.90;;;;;;4960817;28;20566;-74
2023/08/31 05:09:44;;;;;;;7.40;6.70;;;14.20;99.90;;;;;;4952718;28;20664;-74
2023/08/31 05:12:09;;;;;;;7.10;6.23;;;14.10;99.90;;;;;;4951207;29;20280;-73
2023/08/31 05:14:37;;;;;;;8.70;6.27;;;14.20;99.90;;;;;;4950681;28;20643;-73
2023/08/31 05:17:04;;;;;;;6.73;5.37;;;14.30;99.90;;;;;;4951245;28;20171;-72
2023/08/31 05:19:30;;;;;;;5.40;4.90;;;14.30;99.90;;;;;;4952307;28;20781;-73
2023/08/31 05:21:56;;;;;;;6.83;6.00;;;14.40;99.90;;;;;;4972244;28;20418;-72
2023/08/31 05:24:21;;;;;;;7.60;6.87;;;14.50;99.90;;;;;;4967571;28;20197;-73
2023/08/31 05:26:47;;;;;;;7.03;6.30;;;14.50;99.90;;;;;;4954825;28;20219;-73
2023/08/31 05:29:12;;;;;;;5.93;5.33;;;14.50;99.90;;;;;;4950051;29;20175;-72
2023/08/31 05:31:38;;;;;;;7.17;6.47;;;14.50;99.90;;;;;;4954793;28;20178;-72
2023/08/31 05:34:04;;;;;;;7.90;6.10;;;14.50;99.90;;;;;;4953199;28;20298;-72
2023/08/31 05:36:29;;;;;;;9.10;8.20;;;14.60;99.90;;;;;;4958274;28;20266;-72
2023/08/31 05:38:55;;;;;;;6.10;5.50;;;14.50;99.90;;;;;;4954063;28;20183;-73
2023/08/31 05:41:20;;;;;;;6.63;5.93;;;14.50;99.90;;;;;;4957436;28;20175;-72
2023/08/31 05:43:46;;;;;;;6.77;5.50;;;14.60;99.90;;;;;;4953762;28;20283;-73
2023/08/31 05:46:12;;;;;;;5.93;5.33;;;14.50;99.90;;;;;;4953851;28;20187;-72
2023/08/31 05:48:37;;;;;;;7.57;6.10;;;14.70;99.90;;;;;;4953038;28;20197;-73
2023/08/31 05:51:03;;;;;;;6.23;5.60;;;14.70;99.90;;;;;;4953622;28;20205;-73
2023/08/31 05:53:33;;;;;;;5.90;5.33;;;14.70;99.90;;;;;;4956157;28;20272;-73
2023/08/31 05:56:04;;;;;;;6.17;5.57;;;14.50;99.90;;;;;;4955199;28;20455;-73
2023/08/31 05:58:34;;;;;;;6.90;6.20;;;14.60;99.90;;;;;;4953350;28;20504;-72
2023/08/31 06:01:00;;;;;;;6.67;6.07;;;14.60;99.90;;;;;;4951339;28;20455;-72
2023/08/31 06:03:26;;;;;;;6.43;5.80;;;14.80;99.90;;;;;;4953663;28;20422;-72
2023/08/31 06:05:52;;;;;;;7.00;5.77;;;14.70;99.90;;;;;;4955439;28;20545;-72
2023/08/31 06:08:17;;;;;;;6.10;5.50;;;14.70;99.90;;;;;;4953455;28;20313;-73
2023/08/31 06:10:43;;;;;;;9.17;6.33;;;14.80;99.90;;;;;;4951950;28;20187;-72
2023/08/31 06:13:08;;;;;;;6.30;5.70;;;14.80;99.90;;;;;;4968014;28;20558;-73
2023/08/31 06:15:34;;;;;;;6.47;5.87;;;14.90;99.90;;;;;;4950341;28;20172;-72
2023/08/31 06:17:59;;;;;;;8.30;7.40;;;15.00;99.90;;;;;;4953575;28;20670;-73
2023/08/31 06:20:25;;;;;;;6.50;5.90;;;15.10;99.90;;;;;;4953743;28;20275;-71
2023/08/31 06:22:51;;;;;;;8.00;6.57;;;15.10;99.90;;;;;;4956658;28;20181;-71
2023/08/31 06:25:18;;;;;;;5.80;5.30;;;15.00;99.90;;;;;;4964980;28;20199;-73
2023/08/31 06:27:44;;;;;;;6.03;5.53;;;15.00;99.90;;;;;;4952763;28;20292;-73
2023/08/31 06:30:15;;;;;;;10.60;5.70;;;15.10;99.90;;;;;;4949894;28;20466;-73
2023/08/31 06:32:46;;;;;;;5.63;5.13;;;15.10;99.90;;;;;;4952597;28;20840;-71
2023/08/31 06:35:12;;;;;;;8.57;7.23;;;15.20;99.90;;;;;;4947132;28;20541;-71
2023/08/31 06:37:39;;;;;;;7.90;5.57;;;15.20;99.90;;;;;;4953230;28;20421;-71
2023/08/31 06:40:08;;;;;;;7.07;6.30;;;15.10;99.90;;;;;;4952253;28;20410;-71
2023/08/31 06:42:34;;;;;;;5.83;5.23;;;15.00;99.90;;;;;;4953312;28;20415;-72
2023/08/31 06:44:59;;;;;;;5.87;5.00;;;15.10;99.90;;;;;;4952950;28;20447;-72
2023/08/31 06:47:25;;;;;;;6.63;5.97;;;15.20;99.90;;;;;;4953034;28;20777;-72
2023/08/31 06:49:51;;;;;;;6.10;5.50;;;15.20;99.90;;;;;;4953165;28;20177;-72
2023/08/31 06:52:17;;;;;;;8.37;5.40;;;15.50;99.90;;;;;;4952010;28;20218;-72
2023/08/31 06:54:43;;;;;;;5.23;4.60;;;15.70;99.90;;;;;;4933738;29;20769;-72
2023/08/31 06:57:08;;;;;;;5.23;4.70;;;15.70;99.90;;;;;;4934497;29;20412;-72
2023/08/31 06:59:34;;;;;;;5.83;5.20;;;15.40;99.90;;;;;;4933775;29;20524;-72
2023/08/31 07:01:59;;;;;;;6.13;5.57;;;15.50;99.90;;;;;;4933964;29;20181;-72
2023/08/31 07:04:27;;;;;;;9.53;5.53;;;15.70;99.90;;;;;;4933918;29;20189;-73
2023/08/31 07:06:52;;;;;;;5.80;5.30;;;15.70;99.90;;;;;;4934348;28;20190;-73
2023/08/31 07:09:18;;;;;;;6.50;5.80;;;15.90;99.90;;;;;;4933935;29;20967;-74
2023/08/31 07:11:44;;;;;;;5.77;5.20;;;16.00;99.90;;;;;;4947035;28;20650;-72
2023/08/31 07:14:09;;;;;;;5.37;4.87;;;15.90;99.90;;;;;;4952287;28;20257;-72
2023/08/31 07:16:35;;;;;;;8.83;4.90;;;15.90;99.90;;;;;;4953169;28;20276;-72
2023/08/31 07:19:00;;;;;;;5.60;4.90;;;15.90;99.90;;;;;;4952528;28;20185;-71
2023/08/31 07:21:26;;;;;;;5.53;5.10;;;15.90;99.90;;;;;;4952502;28;20181;-72
2023/08/31 07:23:53;;;;;;;6.37;5.00;;;15.70;99.90;;;;;;4952548;28;20624;-71
2023/08/31 07:26:18;;;;;;;9.70;5.90;;;15.60;99.90;;;;;;4952556;28;20228;-71
2023/08/31 07:28:44;;;;;;;7.30;5.20;;;15.80;99.90;;;;;;4950681;28;20475;-72
2023/08/31 07:31:10;;;;;;;6.77;4.50;;;15.80;99.90;;;;;;4952566;29;20183;-72
2023/08/31 07:33:35;;;;;;;6.70;4.97;;;15.90;99.90;;;;;;4947183;28;20666;-71
2023/08/31 07:36:03;;;;;;;6.70;4.00;;;16.10;99.90;;;;;;4952065;28;20623;-71
2023/08/31 07:38:30;;;;;;;4.83;4.17;;;16.00;99.90;;;;;;4952331;28;20185;-71
2023/08/31 07:40:56;;;;;;;3.97;3.67;;;16.10;99.90;;;;;;4952408;28;20417;-71
2023/08/31 07:43:21;;;;;;;6.33;3.83;;;16.10;99.90;;;;;;4951624;28;20487;-71
2023/08/31 07:45:47;;;;;;;5.37;4.20;;;16.20;99.90;;;;;;4952575;28;20505;-71
2023/08/31 07:48:13;;;;;;;6.70;3.77;;;16.20;99.90;;;;;;4952146;29;20250;-72
2023/08/31 07:50:41;;;;;;;5.07;3.43;;;16.00;99.90;;;;;;4952334;28;20172;-72
2023/08/31 07:53:07;;;;;;;3.57;3.10;;;15.90;99.90;;;;;;4949887;28;20177;-71
2023/08/31 07:55:33;;;;;;;7.43;3.83;;;16.00;99.90;;;;;;4956621;28;20503;-71
2023/08/31 07:57:58;;;;;;;3.50;3.20;;;15.90;99.90;;;;;;4950699;28;20190;-71
2023/08/31 08:00:24;;;;;;;4.30;2.80;;;16.00;99.90;;;;;;4950603;29;20174;-72
2023/08/31 08:02:49;;;;;;;3.53;2.90;;;16.20;99.90;;;;;;4950923;28;20264;-72
2023/08/31 08:05:15;;;;;;;3.30;3.00;;;16.30;99.90;;;;;;4951275;28;20200;-72
2023/08/31 08:07:42;;;;;;;2.90;2.70;;;16.50;99.90;;;;;;4951056;28;20189;-72
2023/08/31 08:10:08;;;;;;;3.43;2.90;;;16.30;99.90;;;;;;4951698;28;20177;-72
2023/08/31 08:12:45;;;;;;;3.07;2.77;;;16.30;99.90;;;;;;4952988;28;20412;-72
2023/08/31 08:15:11;;;;;;;5.63;3.17;;;16.30;99.90;;;;;;4950753;28;20428;-72
2023/08/31 08:17:36;;;;;;;3.40;2.33;;;17.40;99.90;;;;;;4954070;28;20479;-72
2023/08/31 08:20:03;;;;;;;3.80;2.07;;;17.90;99.90;;;;;;4951525;29;20185;-72
2023/08/31 08:22:29;;;;;;;2.57;1.73;;;18.60;99.90;;;;;;4964701;28;20701;-72
2023/08/31 08:24:54;;;;;;;2.27;1.53;;;19.40;99.90;;;;;;4950408;28;20431;-72
2023/08/31 08:27:20;;;;;;;4.30;1.53;;;19.20;99.90;;;;;;4949622;28;20194;-72
2023/08/31 08:29:46;;;;;;;5.30;4.77;;;19.00;99.90;;;;;;4955941;28;20629;-69
2023/08/31 08:32:12;;;;;;;4.60;4.10;;;18.90;99.90;;;;;;4951048;28;20170;-71
2023/08/31 08:34:38;;;;;;;3.13;2.30;;;18.80;99.90;;;;;;4951543;28;20494;-74
2023/08/31 08:37:04;;;;;;;3.83;2.00;;;19.20;99.90;;;;;;4951110;28;20458;-72
2023/08/31 08:39:30;;;;;;;2.70;2.50;;;19.50;99.90;;;;;;4951058;29;20528;-72
2023/08/31 08:41:58;;;;;;;2.00;1.40;;;19.30;99.90;;;;;;4951048;28;20433;-73
2023/08/31 08:44:32;;;;;;;3.23;1.47;;;19.70;99.90;;;;;;4950013;28;20539;-72
2023/08/31 08:46:58;;;;;;;3.63;1.73;;;19.30;99.90;;;;;;4951612;28;20444;-72
2023/08/31 08:49:26;;;;;;;2.93;2.27;;;18.50;99.90;;;;;;4957716;28;20905;-72
2023/08/31 08:51:52;;;;;;;2.30;1.50;;;18.60;99.90;;;;;;4970275;28;20463;-72
2023/08/31 08:54:19;;;;;;;1.83;1.50;;;18.50;99.90;;;;;;4971750;28;21049;-72
2023/08/31 08:56:45;;;;;;;2.80;1.40;;;18.80;99.90;;;;;;4974533;28;20411;-72
2023/08/31 08:59:13;;;;;;;2.40;1.20;;;18.70;99.90;;;;;;4972764;28;20419;-72
2023/08/31 09:01:39;;;;;;;1.80;1.40;;;18.80;99.90;;;;;;4957932;28;20184;-73
2023/08/31 09:04:06;;;;;;;1.77;1.47;;;18.00;99.90;;;;;;4955671;28;20463;-72
2023/08/31 09:06:32;;;;;;;2.37;2.00;;;18.10;99.90;;;;;;4954523;28;20415;-72
2023/08/31 09:08:58;;;;;;;3.30;2.00;;;18.20;99.90;;;;;;4952250;28;20546;-71
2023/08/31 09:11:25;;;;;;;2.90;1.57;;;18.70;99.90;;;;;;4965659;28;20740;-72
2023/08/31 09:13:51;;;;;;;3.97;1.80;;;19.60;99.90;;;;;;4954534;28;20201;-72
2023/08/31 09:16:30;;;;;;;3.93;1.43;;;20.20;99.90;;;;;;4968294;28;20416;-72
2023/08/31 09:18:56;;;;;;;3.83;1.40;;;19.90;99.90;;;;;;4935212;28;20501;-72
2023/08/31 09:21:34;;;;;;;7.47;1.37;;;20.30;99.90;;;;;;4951792;28;20416;-71
2023/08/31 09:23:59;;;;;;;3.40;1.27;;;20.20;99.90;;;;;;4945726;28;20536;-72
2023/08/31 09:26:25;;;;;;;3.03;1.13;;;20.10;99.90;;;;;;4953554;28;20951;-72
2023/08/31 09:28:51;;;;;;;1.97;1.47;;;21.00;99.90;;;;;;4955130;28;20205;-72
2023/08/31 09:31:17;;;;;;;5.30;1.50;;;20.60;99.90;;;;;;4965759;28;20198;-72
2023/08/31 09:34:01;;;;;;;2.00;1.80;;;20.00;99.90;;;;;;4954617;28;20472;-72
2023/08/31 09:36:28;;;;;;;4.50;1.77;;;19.10;99.90;;;;;;4957151;28;20176;-72
2023/08/31 09:38:58;;;;;;;2.30;1.47;;;19.20;99.90;;;;;;4955172;28;20447;-72
2023/08/31 09:41:24;;;;;;;2.00;1.30;;;19.50;99.90;;;;;;4954558;28;20438;-72
2023/08/31 09:43:49;;;;;;;3.63;1.43;;;19.00;99.90;;;;;;4954467;28;20950;-72
2023/08/31 09:46:15;;;;;;;2.13;1.50;;;19.00;99.90;;;;;;4954802;28;20524;-71
2023/08/31 09:48:43;;;;;;;1.40;1.30;;;19.10;99.90;;;;;;4970692;28;20308;-72
2023/08/31 09:51:10;;;;;;;4.33;1.37;;;20.00;99.90;;;;;;4966176;28;20738;-72
2023/08/31 09:53:37;;;;;;;5.17;1.70;;;20.40;99.90;;;;;;4962904;28;21009;-71
2023/08/31 09:56:05;;;;;;;3.10;2.63;;;20.50;99.90;;;;;;4956991;28;20813;-72
2023/08/31 09:58:32;;;;;;;4.07;1.13;;;20.90;99.90;;;;;;4954357;28;20490;-73
2023/08/31 10:00:59;;;;;;;2.47;1.40;;;20.40;99.90;;;;;;4954315;28;20410;-72
2023/08/31 10:03:27;;;;;;;2.13;1.30;;;19.80;99.90;;;;;;4954481;28;20793;-72
2023/08/31 10:05:55;;;;;;;1.40;1.30;;;20.20;99.90;;;;;;4967541;28;20628;-72
2023/08/31 10:08:21;;;;;;;4.27;1.83;;;19.70;99.90;;;;;;4960504;28;20456;-73
2023/08/31 10:10:47;;;;;;;2.57;1.50;;;19.80;99.90;;;;;;4952528;28;20420;-73
2023/08/31 10:13:13;;;;;;;5.37;1.67;;;20.00;99.90;;;;;;4953752;28;20584;-73
2023/08/31 10:15:43;;;;;;;2.30;1.43;;;19.30;99.90;;;;;;4938783;28;20430;-73
2023/08/31 10:18:08;;;;;;;3.57;1.37;;;19.20;99.90;;;;;;4951873;28;20964;-72
2023/08/31 10:20:34;;;;;;;5.33;1.33;;;19.60;99.90;;;;;;4937102;29;20459;-72
2023/08/31 10:23:06;;;;;;;2.50;1.37;;;19.30;99.90;;;;;;4955730;28;20208;-72
2023/08/31 10:25:50;;;;;;;5.17;1.93;;;19.50;99.90;;;;;;4952790;28;20799;-72
2023/08/31 10:28:19;;;;;;;4.03;1.60;;;20.00;99.90;;;;;;4960593;28;20482;-72
2023/08/31 10:31:08;;;;;;;7.10;1.60;;;20.50;99.90;;;;;;4961619;28;20422;-72
2023/08/31 10:33:57;;;;;;;1.80;1.33;;;20.20;99.90;;;;;;4968939;28;20442;-72
2023/08/31 10:36:54;;;;;;;2.33;1.50;;;19.70;99.90;;;;;;4959268;28;20530;-72
2023/08/31 10:39:20;;;;;;;4.70;1.40;;;18.60;99.90;;;;;;4954022;28;20482;-72
2023/08/31 10:41:56;;;;;;;1.63;1.30;;;18.00;99.90;;;;;;4956455;28;20417;-72
2023/08/31 10:44:24;;;;;;;3.40;1.90;;;17.00;99.90;;;;;;4953430;28;20203;-73
2023/08/31 10:46:50;;;;;;;2.03;1.23;;;16.80;99.90;;;;;;4953527;29;20415;-72
2023/08/31 10:49:21;;;;;;;1.80;1.40;;;16.50;99.90;;;;;;4954020;28;20532;-72
2023/08/31 10:51:53;;;;;;;1.30;1.20;;;16.50;99.90;;;;;;4953724;28;20426;-72
2023/08/31 10:54:25;;;;;;;2.00;1.60;;;16.50;99.90;;;;;;4952865;28;20462;-72
2023/08/31 10:57:06;;;;;;;2.97;1.57;;;16.60;99.90;;;;;;4957288;28;20435;-72
2023/08/31 10:59:53;;;;;;;1.70;1.60;;;16.60;99.90;;;;;;4952994;28;20402;-71
2023/08/31 11:02:29;;;;;;;1.60;1.50;;;16.90;99.90;;;;;;4963381;28;20495;-71
2023/08/31 11:05:11;;;;;;;1.57;1.40;;;17.00;99.90;;;;;;4952826;28;20490;-72
2023/08/31 11:07:40;;;;;;;2.30;2.10;;;16.90;99.90;;;;;;4955599;28;20556;-71
2023/08/31 11:10:11;;;;;;;1.90;1.80;;;17.00;99.90;;;;;;4953097;28;20959;-71
2023/08/31 11:12:38;;;;;;;1.60;1.43;;;16.70;99.90;;;;;;4950931;28;20847;-72
2023/08/31 11:15:05;;;;;;;2.13;1.57;;;16.70;99.90;;;;;;4965159;28;20464;-71
2023/08/31 11:17:34;;;;;;;1.80;1.43;;;17.00;99.90;;;;;;4962041;28;20427;-71
2023/08/31 11:20:00;;;;;;;3.00;1.67;;;17.50;99.90;;;;;;4943397;28;20432;-71
2023/08/31 11:22:27;;;;;;;2.47;1.63;;;17.70;99.90;;;;;;4952643;28;20424;-71
2023/08/31 11:24:53;;;;;;;2.27;2.07;;;17.60;99.90;;;;;;4952077;28;20458;-72
2023/08/31 11:27:20;;;;;;;3.80;1.80;;;17.70;99.90;;;;;;4952600;29;20948;-72
2023/08/31 11:29:46;;;;;;;2.43;1.93;;;18.00;99.90;;;;;;4952390;28;20171;-72
2023/08/31 11:32:13;;;;;;;2.47;2.27;;;18.00;99.90;;;;;;4952658;28;20443;-72
2023/08/31 11:34:43;;;;;;;1.87;1.60;;;18.10;99.90;;;;;;4951849;28;20941;-72
2023/08/31 11:37:17;;;;;;;3.37;2.13;;;18.40;99.90;;;;;;4952586;28;20434;-72
2023/08/31 11:39:52;;;;;;;6.10;2.50;;;18.30;99.90;;;;;;4953631;28;20971;-72
2023/08/31 11:42:20;;;;;;;4.83;1.97;;;18.20;99.90;;;;;;4952853;28;20430;-72
2023/08/31 11:44:50;;;;;;;2.93;2.10;;;18.40;99.90;;;;;;4952725;28;20493;-72
2023/08/31 11:47:17;;;;;;;5.13;4.13;;;18.10;99.90;;;;;;4952603;28;20465;-72
2023/08/31 11:49:44;;;;;;;5.13;2.60;;;18.20;99.90;;;;;;4952511;28;20412;-72
2023/08/31 11:52:11;;;;;;;2.47;2.27;;;18.00;99.90;;;;;;4948909;28;20491;-72
2023/08/31 11:54:38;;;;;;;4.43;2.10;;;17.60;99.90;;;;;;4951082;28;20801;-72
2023/08/31 11:57:07;;;;;;;2.00;1.80;;;17.70;99.90;;;;;;4952858;28;20420;-72
2023/08/31 11:59:38;;;;;;;1.90;1.70;;;17.70;99.90;;;;;;4964519;28;20415;-72
2023/08/31 12:02:08;;;;;;;7.27;2.10;;;17.50;99.90;;;;;;4972329;28;20409;-71
2023/08/31 12:04:33;;;;;;;4.03;2.30;;;17.10;99.90;;;;;;4972595;28;20471;-71
2023/08/31 12:07:04;;;;;;;2.67;2.40;;;17.00;99.90;;;;;;4967187;28;20441;-71
2023/08/31 12:09:30;;;;;;;2.90;2.00;;;16.90;99.90;;;;;;4953612;28;20672;-71
2023/08/31 12:11:56;;;;;;;3.03;1.90;;;16.80;99.90;;;;;;4952365;28;20440;-71
2023/08/31 12:14:26;;;;;;;9.87;2.20;;;17.20;99.90;;;;;;4952073;28;20480;-71
2023/08/31 12:17:00;;;;;;;2.00;1.80;;;17.70;99.90;;;;;;4952218;28;20419;-73
2023/08/31 12:19:32;;;;;;;4.40;1.87;;;18.00;99.90;;;;;;4950859;28;20414;-72
2023/08/31 12:21:58;;;;;;;3.90;1.90;;;18.40;99.90;;;;;;4947373;28;20435;-72
2023/08/31 12:24:24;;;;;;;2.70;2.10;;;18.60;99.90;;;;;;4952973;28;21014;-73
2023/08/31 12:26:50;;;;;;;2.93;2.27;;;18.40;99.90;;;;;;4951904;28;20412;-72
2023/08/31 12:29:16;;;;;;;5.23;2.10;;;18.50;99.90;;;;;;4954528;28;20456;-73
2023/08/31 12:31:43;;;;;;;2.47;1.90;;;18.30;99.90;;;;;;4955949;28;20906;-71
2023/08/31 12:34:09;;;;;;;3.00;1.90;;;18.40;99.90;;;;;;4955548;28;20586;-72
2023/08/31 12:36:40;;;;;;;2.03;1.83;;;18.40;99.90;;;;;;4955653;28;20423;-72
2023/08/31 12:39:09;;;;;;;4.50;2.03;;;18.70;99.90;;;;;;4948475;29;20425;-73
2023/08/31 12:41:35;;;;;;;1.50;1.40;;;18.80;99.90;;;;;;4962745;28;20800;-72
2023/08/31 12:44:03;;;;;;;3.17;2.07;;;19.10;99.90;;;;;;4958347;28;20936;-72
2023/08/31 12:46:29;;;;;;;3.47;2.30;;;19.00;99.90;;;;;;4954838;28;20784;-73
2023/08/31 12:48:54;;;;;;;3.57;2.20;;;19.00;99.90;;;;;;4945168;28;20469;-72
2023/08/31 12:51:20;;;;;;;3.03;2.67;;;19.20;99.90;;;;;;4938761;28;20866;-72